createdAt,value
2017-04-21T00:00:30.495Z,27.97
2017-04-21T00:01:28.785Z,26.25
2017-04-21T00:02:27.305Z,27.07
2017-04-21T00:03:25.676Z,27.45
2017-04-21T00:04:23.959Z,27.60
2017-04-21T00:05:22.318Z,31.78
2017-04-21T00:06:20.625Z,25.08
2017-04-21T00:07:19.146Z,25.98
2017-04-21T00:08:17.460Z,27.23
2017-04-21T00:09:15.722Z,29.50
2017-04-21T00:10:14.007Z,27.18
2017-04-21T00:11:12.357Z,26.17
2017-04-21T00:12:10.842Z,26.12
2017-04-21T00:13:09.162Z,25.63
2017-04-21T00:14:07.455Z,28.38
2017-04-21T00:15:05.942Z,27.53
2017-04-21T00:16:04.307Z,29.22
2017-04-21T00:17:03.290Z,29.40
2017-04-21T00:18:01.207Z,28.07
2017-04-21T00:18:59.511Z,28.28
2017-04-21T00:19:57.863Z,28.30
2017-04-21T00:20:56.256Z,25.18
2017-04-21T00:21:54.568Z,28.38
2017-04-21T00:22:52.927Z,33.45
2017-04-21T00:23:51.201Z,26.72
2017-04-21T00:24:50.223Z,27.65
2017-04-21T00:25:48.460Z,24.95
2017-04-21T00:26:47.722Z,24.08
2017-04-21T00:27:46.075Z,28.03
2017-04-21T00:28:45.121Z,27.48
2017-04-21T00:29:43.348Z,26.90
2017-04-21T00:30:42.168Z,28.35
2017-04-21T00:31:41.023Z,26.10
2017-04-21T00:32:39.662Z,25.95
2017-04-21T00:33:38.636Z,26.75
2017-04-21T00:34:38.031Z,26.78
2017-04-21T00:35:36.379Z,30.57
2017-04-21T00:36:35.683Z,27.35
2017-04-21T00:37:34.057Z,26.65
2017-04-21T00:38:32.974Z,27.10
2017-04-21T00:39:32.505Z,28.95
2017-04-21T00:40:30.879Z,24.02
2017-04-21T00:41:29.122Z,31.08
2017-04-21T00:42:27.370Z,26.33
2017-04-21T00:43:26.356Z,29.50
2017-04-21T00:44:25.423Z,28.55
2017-04-21T00:45:23.722Z,28.37
2017-04-21T00:46:21.998Z,28.48
2017-04-21T00:47:20.329Z,26.33
2017-04-21T00:48:18.595Z,27.83
2017-04-21T00:49:17.513Z,27.63
2017-04-21T00:50:17.140Z,31.43
2017-04-21T00:51:16.107Z,27.27
2017-04-21T00:52:14.543Z,28.62
2017-04-21T00:53:14.289Z,28.20
2017-04-21T00:54:12.626Z,30.18
2017-04-21T00:55:10.922Z,29.17
2017-04-21T00:56:09.159Z,30.27
2017-04-21T00:57:07.392Z,27.05
2017-04-21T00:58:05.741Z,30.80
2017-04-21T00:59:04.001Z,26.63
2017-04-21T01:00:03.112Z,25.17
2017-04-21T01:01:02.160Z,25.28
2017-04-21T01:02:01.924Z,27.28
2017-04-21T01:03:00.175Z,25.88
2017-04-21T01:03:59.225Z,29.55
2017-04-21T01:04:57.530Z,28.42
2017-04-21T01:05:56.511Z,27.28
2017-04-21T01:06:55.535Z,28.07
2017-04-21T01:07:53.894Z,28.50
2017-04-21T01:08:52.953Z,30.62
2017-04-21T01:09:52.060Z,27.52
2017-04-21T01:10:50.399Z,26.45
2017-04-21T01:11:49.497Z,30.43
2017-04-21T01:12:48.604Z,29.05
2017-04-21T01:13:47.452Z,29.55
2017-04-21T01:14:45.763Z,27.98
2017-04-21T01:15:44.611Z,28.03
2017-04-21T01:16:43.701Z,25.12
2017-04-21T01:17:42.703Z,29.80
2017-04-21T01:18:41.011Z,27.30
2017-04-21T01:19:39.262Z,29.52
2017-04-21T01:20:37.680Z,30.30
2017-04-21T01:21:36.831Z,29.13
2017-04-21T01:22:35.159Z,26.80
2017-04-21T01:23:34.103Z,26.78
2017-04-21T01:24:32.381Z,28.22
2017-04-21T01:25:30.741Z,26.93
2017-04-21T01:26:29.063Z,28.97
2017-04-21T01:27:27.355Z,29.60
2017-04-21T01:28:25.656Z,25.88
2017-04-21T01:29:24.699Z,30.15
2017-04-21T01:30:22.924Z,26.85
2017-04-21T01:31:21.210Z,25.05
2017-04-21T01:32:19.452Z,31.82
2017-04-21T01:33:17.808Z,26.52
2017-04-21T01:34:17.308Z,30.20
2017-04-21T01:35:16.388Z,26.58
2017-04-21T01:36:15.359Z,27.00
2017-04-21T01:37:13.623Z,28.07
2017-04-21T01:38:12.040Z,25.43
2017-04-21T01:39:10.895Z,25.87
2017-04-21T01:40:09.121Z,24.75
2017-04-21T01:41:08.160Z,24.05
2017-04-21T01:42:06.416Z,25.60
2017-04-21T01:43:04.685Z,27.63
2017-04-21T01:44:03.072Z,23.70
2017-04-21T01:45:01.977Z,25.70
2017-04-21T01:46:00.232Z,27.07
2017-04-21T01:46:58.541Z,24.88
2017-04-21T01:47:56.775Z,24.67
2017-04-21T01:48:55.070Z,25.43
2017-04-21T01:49:53.949Z,25.30
2017-04-21T01:50:52.244Z,21.78
2017-04-21T01:51:50.535Z,23.58
2017-04-21T01:52:49.715Z,27.68
2017-04-21T01:53:48.868Z,24.65
2017-04-21T01:54:47.152Z,27.32
2017-04-21T01:55:45.450Z,25.75
2017-04-21T01:56:43.832Z,25.17
2017-04-21T01:57:42.201Z,25.55
2017-04-21T01:58:41.039Z,26.80
2017-04-21T01:59:39.402Z,28.98
2017-04-21T02:00:37.676Z,27.13
2017-04-21T02:01:36.022Z,22.03
2017-04-21T02:02:34.332Z,21.88
2017-04-21T02:03:33.344Z,29.65
2017-04-21T02:04:31.686Z,25.80
2017-04-21T02:05:29.972Z,24.05
2017-04-21T02:06:28.399Z,28.40
2017-04-21T02:07:26.970Z,24.72
2017-04-21T02:08:25.297Z,23.88
2017-04-21T02:09:23.659Z,22.12
2017-04-21T02:10:22.411Z,25.22
2017-04-21T02:11:21.174Z,26.40
2017-04-21T02:12:19.597Z,24.87
2017-04-21T02:13:18.106Z,25.25
2017-04-21T02:14:16.428Z,27.72
2017-04-21T02:15:14.759Z,24.87
2017-04-21T02:16:13.050Z,25.55
2017-04-21T02:17:11.353Z,27.05
2017-04-21T02:18:09.721Z,29.40
2017-04-21T02:19:08.067Z,26.75
2017-04-21T02:20:06.369Z,22.90
2017-04-21T02:21:05.439Z,26.95
2017-04-21T02:22:04.622Z,24.48
2017-04-21T02:23:02.865Z,24.93
2017-04-21T02:24:01.834Z,25.40
2017-04-21T02:25:00.110Z,28.48
2017-04-21T02:25:58.481Z,24.68
2017-04-21T02:39:56.783Z,31.68
2017-04-21T02:40:55.921Z,28.07
2017-04-21T02:41:54.218Z,29.85
2017-04-21T02:42:52.455Z,28.03
2017-04-21T02:43:51.434Z,25.60
2017-04-21T02:44:49.742Z,26.38
2017-04-21T02:45:48.138Z,25.37
2017-04-21T02:46:46.446Z,24.32
2017-04-21T02:47:44.713Z,24.40
2017-04-21T02:48:43.008Z,28.48
2017-04-21T02:49:41.268Z,25.28
2017-04-21T02:50:39.796Z,25.22
2017-04-21T02:51:38.209Z,25.25
2017-04-21T02:52:36.473Z,26.53
2017-04-21T02:53:34.772Z,25.18
2017-04-21T02:54:33.089Z,22.55
2017-04-21T02:55:31.385Z,26.25
2017-04-21T02:56:29.648Z,25.48
2017-04-21T02:57:27.903Z,23.77
2017-04-21T02:58:26.235Z,21.47
2017-04-21T02:59:24.657Z,24.27
2017-04-21T03:00:22.906Z,24.17
2017-04-21T03:01:21.172Z,25.07
2017-04-21T03:02:19.422Z,24.18
2017-04-21T03:03:17.770Z,29.20
2017-04-21T03:04:16.517Z,27.95
2017-04-21T03:05:15.560Z,27.90
2017-04-21T03:06:14.522Z,24.37
2017-04-21T03:07:12.839Z,22.32
2017-04-21T03:08:11.303Z,24.58
2017-04-21T03:09:09.620Z,25.75
2017-04-21T03:10:07.990Z,27.68
2017-04-21T03:11:06.441Z,26.20
2017-04-21T03:12:04.756Z,24.17
2017-04-21T03:13:03.111Z,27.37
2017-04-21T03:14:02.035Z,26.02
2017-04-21T03:15:00.446Z,28.95
2017-04-21T03:15:58.974Z,27.52
2017-04-21T03:16:56.891Z,29.48
2017-04-21T03:17:55.134Z,26.20
2017-04-21T03:18:53.478Z,25.68
2017-04-21T03:19:52.479Z,28.35
2017-04-21T03:20:50.738Z,30.65
2017-04-21T03:21:49.015Z,28.22
2017-04-21T03:22:47.341Z,27.18
2017-04-21T03:23:45.602Z,30.22
2017-04-21T03:24:43.982Z,26.52
2017-04-21T03:25:42.305Z,29.17
2017-04-21T03:26:40.647Z,27.22
2017-04-21T03:27:39.890Z,26.67
2017-04-21T03:28:38.119Z,28.87
2017-04-21T03:29:36.382Z,29.48
2017-04-21T03:30:34.715Z,27.78
2017-04-21T03:31:33.701Z,27.42
2017-04-21T03:32:32.860Z,30.13
2017-04-21T03:33:31.176Z,29.03
2017-04-21T03:34:29.441Z,28.77
2017-04-21T03:35:28.581Z,31.02
2017-04-21T03:36:26.856Z,27.47
2017-04-21T03:37:25.134Z,29.35
2017-04-21T03:38:23.424Z,31.20
2017-04-21T03:39:21.772Z,28.70
2017-04-21T03:40:20.006Z,30.30
2017-04-21T03:41:18.270Z,29.50
2017-04-21T03:42:16.717Z,29.47
2017-04-21T03:43:15.049Z,31.23
2017-04-21T03:44:14.115Z,31.23
2017-04-21T03:45:12.894Z,26.88
2017-04-21T03:46:11.187Z,29.97
2017-04-21T03:47:09.524Z,28.70
2017-04-21T03:48:07.772Z,27.82
2017-04-21T03:49:06.077Z,27.72
2017-04-21T03:50:05.128Z,30.02
2017-04-21T03:51:04.003Z,30.25
2017-04-21T03:52:02.281Z,32.10
2017-04-21T03:53:00.603Z,29.38
2017-04-21T03:53:58.931Z,30.43
2017-04-21T03:54:57.863Z,32.82
2017-04-21T03:55:56.192Z,28.20
2017-04-21T03:56:55.306Z,25.65
2017-04-21T03:57:54.550Z,28.13
2017-04-21T03:58:52.883Z,30.97
2017-04-21T03:59:52.681Z,31.38
2017-04-21T04:00:50.990Z,25.75
2017-04-21T04:01:49.304Z,28.45
2017-04-21T04:02:47.619Z,28.35
2017-04-21T04:03:46.044Z,27.10
2017-04-21T04:04:44.344Z,26.53
2017-04-21T04:05:43.283Z,29.12
2017-04-21T04:06:41.554Z,31.12
2017-04-21T04:07:39.831Z,33.10
2017-04-21T04:08:38.117Z,24.88
2017-04-21T04:09:36.594Z,30.28
2017-04-21T04:10:34.907Z,26.38
2017-04-21T04:11:33.920Z,27.68
2017-04-21T04:12:32.335Z,27.50
2017-04-21T04:13:31.175Z,30.23
2017-04-21T04:14:29.400Z,29.05
2017-04-21T04:15:28.424Z,30.28
2017-04-21T04:16:26.669Z,27.78
2017-04-21T04:17:24.883Z,26.70
2017-04-21T04:18:22.775Z,29.43
2017-04-21T04:19:21.090Z,31.15
2017-04-21T04:20:19.339Z,27.68
2017-04-21T04:21:17.849Z,31.12
2017-04-21T04:22:16.176Z,30.23
2017-04-21T04:23:14.559Z,30.47
2017-04-21T04:24:14.454Z,32.27
2017-04-21T04:25:13.451Z,32.33
2017-04-21T04:26:11.819Z,28.70
2017-04-21T04:27:10.060Z,35.57
2017-04-21T04:28:08.358Z,28.90
2017-04-21T04:29:06.579Z,38.60
2017-04-21T04:30:05.581Z,28.90
2017-04-21T04:31:03.924Z,28.45
2017-04-21T04:32:03.020Z,28.85
2017-04-21T04:33:06.490Z,30.50
2017-04-21T04:34:06.039Z,32.35
2017-04-21T04:35:04.340Z,29.57
2017-04-21T04:36:02.749Z,28.85
2017-04-21T04:37:01.090Z,30.78
2017-04-21T04:37:59.362Z,27.25
2017-04-21T04:38:58.427Z,28.93
2017-04-21T04:39:56.909Z,28.20
2017-04-21T04:40:55.564Z,29.52
2017-04-21T04:41:57.383Z,28.77
2017-04-21T04:42:56.886Z,30.90
2017-04-21T04:43:56.621Z,30.28
2017-04-21T04:44:55.593Z,26.75
2017-04-21T04:45:53.898Z,30.52
2017-04-21T04:46:52.998Z,26.18
2017-04-21T04:47:51.267Z,28.60
2017-04-21T04:48:50.104Z,29.15
2017-04-21T04:49:48.410Z,30.00
2017-04-21T04:50:46.783Z,29.52
2017-04-21T04:51:45.109Z,25.80
2017-04-21T04:52:43.407Z,28.18
2017-04-21T04:53:41.607Z,25.13
2017-04-21T04:54:40.051Z,31.78
2017-04-21T04:55:38.493Z,30.53
2017-04-21T04:56:36.887Z,35.08
2017-04-21T04:57:35.207Z,29.87
2017-04-21T04:58:33.438Z,32.82
2017-04-21T04:59:31.881Z,29.23
2017-04-21T05:00:30.950Z,31.15
2017-04-21T05:01:29.351Z,32.93
2017-04-21T05:02:27.630Z,31.82
2017-04-21T05:03:26.276Z,29.15
2017-04-21T05:04:24.604Z,30.98
2017-04-21T05:05:22.957Z,31.05
2017-04-21T05:06:21.228Z,33.83
2017-04-21T05:07:19.486Z,34.03
2017-04-21T05:08:19.112Z,29.40
2017-04-21T05:09:17.428Z,32.82
2017-04-21T05:10:15.469Z,29.37
2017-04-21T05:11:13.944Z,29.75
2017-04-21T05:12:12.420Z,29.03
2017-04-21T05:13:10.794Z,30.43
2017-04-21T05:14:09.291Z,32.53
2017-04-21T05:15:07.693Z,32.65
2017-04-21T05:16:05.969Z,31.23
2017-04-21T05:17:04.282Z,28.45
2017-04-21T05:18:02.696Z,32.53
2017-04-21T05:19:04.957Z,29.30
2017-04-21T05:20:03.636Z,28.50
2017-04-21T05:21:02.425Z,26.27
2017-04-21T05:22:00.779Z,28.42
2017-04-21T05:22:58.983Z,39.45
2017-04-21T05:23:57.360Z,28.45
2017-04-21T05:24:55.635Z,34.52
2017-04-21T05:25:54.854Z,30.47
2017-04-21T05:26:53.175Z,27.85
2017-04-21T05:27:52.072Z,28.82
2017-04-21T05:28:51.092Z,33.22
2017-04-21T05:29:50.321Z,34.23
2017-04-21T05:30:53.193Z,27.45
2017-04-21T05:31:52.622Z,29.88
2017-04-21T05:32:52.557Z,29.62
2017-04-21T05:33:52.921Z,30.60
2017-04-21T05:34:52.747Z,27.45
2017-04-21T05:35:51.087Z,33.90
2017-04-21T05:36:49.989Z,29.98
2017-04-21T05:37:48.260Z,28.37
2017-04-21T05:38:46.584Z,28.27
2017-04-21T05:39:46.010Z,28.45
2017-04-21T05:40:44.834Z,31.97
2017-04-21T05:41:44.043Z,28.13
2017-04-21T05:42:42.641Z,25.05
2017-04-21T05:43:41.013Z,28.92
2017-04-21T05:44:39.310Z,28.30
2017-04-21T05:45:37.554Z,28.75
2017-04-21T05:46:35.858Z,31.40
2017-04-21T05:47:34.152Z,28.52
2017-04-21T05:48:32.469Z,30.35
2017-04-21T05:49:30.376Z,29.50
2017-04-21T05:50:29.593Z,27.82
2017-04-21T05:51:28.519Z,28.68
2017-04-21T05:52:26.800Z,26.45
2017-04-21T05:53:25.980Z,28.82
2017-04-21T05:54:24.199Z,28.37
2017-04-21T05:55:22.512Z,27.90
2017-04-21T05:56:21.536Z,29.08
2017-04-21T05:57:20.615Z,30.87
2017-04-21T05:58:19.614Z,29.40
2017-04-21T05:59:18.092Z,32.63
2017-04-21T06:00:16.463Z,31.57
2017-04-21T06:01:14.810Z,27.00
2017-04-21T06:02:13.864Z,35.95
2017-04-21T06:03:12.912Z,31.18
2017-04-21T06:04:11.192Z,31.90
2017-04-21T06:05:09.529Z,27.12
2017-04-21T06:06:08.308Z,28.73
2017-04-21T06:07:10.039Z,33.68
2017-04-21T06:08:08.932Z,28.05
2017-04-21T06:09:08.017Z,31.10
2017-04-21T06:10:06.293Z,29.92
2017-04-21T06:11:04.694Z,29.10
2017-04-21T06:12:03.690Z,31.15
2017-04-21T06:13:01.940Z,33.00
2017-04-21T06:14:01.003Z,33.28
2017-04-21T06:14:59.320Z,28.07
2017-04-21T06:15:57.581Z,31.20
2017-04-21T06:16:55.950Z,34.65
2017-04-21T06:17:54.223Z,27.30
2017-04-21T06:18:52.484Z,28.65
2017-04-21T06:19:50.763Z,27.93
2017-04-21T06:20:49.801Z,29.05
2017-04-21T06:21:48.189Z,27.65
2017-04-21T06:22:46.524Z,29.37
2017-04-21T06:23:44.836Z,29.32
2017-04-21T06:24:43.283Z,28.20
2017-04-21T06:25:42.171Z,31.00
2017-04-21T06:26:40.490Z,32.25
2017-04-21T06:27:39.526Z,30.82
2017-04-21T06:28:37.855Z,30.37
2017-04-21T06:29:36.146Z,29.22
2017-04-21T06:30:34.512Z,25.67
2017-04-21T06:31:32.801Z,32.88
2017-04-21T06:32:31.221Z,32.52
2017-04-21T06:33:30.190Z,33.20
2017-04-21T06:34:28.462Z,28.92
2017-04-21T06:35:27.483Z,28.70
2017-04-21T06:36:25.732Z,28.55
2017-04-21T06:37:24.653Z,28.28
2017-04-21T06:38:22.897Z,31.67
2017-04-21T06:39:21.242Z,30.17
2017-04-21T06:40:19.524Z,26.73
2017-04-21T06:41:17.826Z,28.95
2017-04-21T06:42:16.289Z,26.57
2017-04-21T06:43:14.567Z,28.00
2017-04-21T06:44:12.887Z,28.05
2017-04-21T06:45:11.933Z,30.75
2017-04-21T06:46:09.944Z,29.97
2017-04-21T06:47:08.203Z,30.87
2017-04-21T06:48:06.470Z,30.72
2017-04-21T06:49:04.790Z,26.88
2017-04-21T06:50:03.703Z,27.98
2017-04-21T06:51:01.978Z,28.70
2017-04-21T06:52:00.613Z,28.30
2017-04-21T06:52:59.671Z,28.50
2017-04-21T06:53:57.963Z,26.13
2017-04-21T06:54:56.261Z,30.53
2017-04-21T06:55:54.685Z,30.01
2017-04-21T06:56:53.014Z,29.09
2017-04-21T06:57:51.280Z,29.64
2017-04-21T06:58:49.659Z,27.50
2017-04-21T06:59:47.933Z,30.67
2017-04-21T07:00:46.383Z,30.20
2017-04-21T07:01:44.715Z,28.51
2017-04-21T07:02:56.242Z,28.67
2017-04-21T07:03:54.590Z,31.54
2017-04-21T07:04:53.004Z,26.94
2017-04-21T07:05:51.519Z,28.40
2017-04-21T07:06:49.830Z,26.43
2017-04-21T07:07:48.108Z,30.41
2017-04-21T07:08:46.399Z,27.06
2017-04-21T07:09:44.654Z,28.90
2017-04-21T07:10:42.922Z,26.93
2017-04-21T07:11:41.211Z,27.86
2017-04-21T07:12:39.525Z,29.51
2017-04-21T07:13:37.775Z,28.04
2017-04-21T07:14:36.071Z,31.43
2017-04-21T07:15:34.803Z,27.77
2017-04-21T07:16:33.188Z,26.87
2017-04-21T07:17:32.167Z,27.70
2017-04-21T07:18:30.491Z,34.69
2017-04-21T07:19:28.722Z,29.09
2017-04-21T07:20:26.986Z,29.10
2017-04-21T07:21:25.324Z,24.06
2017-04-21T07:22:23.710Z,25.00
2017-04-21T07:23:23.110Z,26.23
2017-04-21T07:24:21.400Z,29.17
2017-04-21T07:25:19.704Z,32.61
2017-04-21T07:26:18.084Z,35.33
2017-04-21T07:27:16.387Z,30.77
2017-04-21T07:28:14.708Z,29.06
2017-04-21T07:29:13.041Z,32.76
2017-04-21T07:30:12.232Z,29.81
2017-04-21T07:31:10.599Z,30.40
2017-04-21T07:32:08.901Z,30.50
2017-04-21T07:33:07.169Z,29.43
2017-04-21T07:34:05.401Z,30.20
2017-04-21T07:35:03.703Z,32.50
2017-04-21T07:37:00.244Z,33.84
2017-04-21T07:37:59.226Z,32.27
2017-04-21T07:38:57.513Z,32.79
2017-04-21T07:39:55.798Z,35.57
2017-04-21T07:40:54.267Z,40.05
2017-04-21T07:41:52.556Z,37.30
2017-04-21T07:42:50.835Z,41.17
2017-04-21T07:43:50.556Z,34.45
2017-04-21T07:44:48.803Z,34.22
2017-04-21T07:45:47.549Z,34.67
2017-04-21T07:46:45.775Z,39.27
2017-04-21T07:47:44.748Z,34.82
2017-04-21T07:48:44.479Z,30.92
2017-04-21T07:49:42.690Z,35.60
2017-04-21T07:50:40.996Z,31.80
2017-04-21T07:51:39.394Z,34.45
2017-04-21T07:52:37.671Z,37.03
2017-04-21T07:53:35.952Z,32.90
2017-04-21T07:54:34.184Z,32.23
2017-04-21T07:55:32.536Z,35.15
2017-04-21T07:56:30.984Z,38.07
2017-04-21T07:57:30.022Z,38.32
2017-04-21T07:58:28.274Z,37.07
2017-04-21T07:59:26.674Z,35.23
2017-04-21T08:00:24.983Z,36.55
2017-04-21T08:01:24.015Z,37.45
2017-04-21T08:02:22.335Z,40.05
2017-04-21T08:03:21.336Z,39.08
2017-04-21T08:04:19.707Z,47.07
2017-04-21T08:05:19.097Z,38.08
2017-04-21T08:06:17.366Z,37.08
2017-04-21T08:07:15.654Z,35.60
2017-04-21T08:08:13.974Z,37.77
2017-04-21T08:09:12.284Z,40.13
2017-04-21T08:10:10.595Z,38.25
2017-04-21T08:11:08.895Z,37.25
2017-04-21T08:12:07.253Z,39.36
2017-04-21T08:13:05.570Z,43.18
2017-04-21T08:14:03.868Z,37.35
2017-04-21T08:15:02.237Z,34.48
2017-04-21T08:16:00.591Z,39.31
2017-04-21T08:16:58.862Z,35.32
2017-04-21T08:17:57.799Z,37.76
2017-04-21T08:18:56.142Z,40.33
2017-04-21T08:19:54.426Z,36.93
2017-04-21T08:20:52.703Z,34.97
2017-04-21T08:21:51.067Z,42.33
2017-04-21T08:22:49.346Z,38.37
2017-04-21T08:23:47.630Z,37.44
2017-04-21T08:24:46.018Z,40.90
2017-04-21T08:25:44.426Z,43.83
2017-04-21T08:26:42.737Z,41.30
2017-04-21T08:27:41.016Z,37.03
2017-04-21T08:28:39.347Z,37.94
2017-04-21T08:29:37.659Z,43.57
2017-04-21T08:30:36.528Z,38.37
2017-04-21T08:31:34.766Z,40.09
2017-04-21T08:32:33.030Z,39.39
2017-04-21T08:33:31.309Z,38.83
2017-04-21T08:34:29.700Z,40.19
2017-04-21T08:35:28.525Z,37.53
2017-04-21T08:36:26.802Z,42.37
2017-04-21T08:37:25.154Z,38.33
2017-04-21T08:38:25.590Z,39.06
2017-04-21T08:39:23.902Z,37.44
2017-04-21T08:40:22.192Z,43.11
2017-04-21T08:41:20.481Z,38.90
2017-04-21T08:42:19.354Z,43.49
2017-04-21T08:43:17.612Z,37.11
2017-04-21T08:44:16.607Z,38.51
2017-04-21T08:45:14.920Z,39.90
2017-04-21T08:46:13.210Z,40.20
2017-04-21T08:47:11.500Z,42.29
2017-04-21T08:48:09.804Z,38.50
2017-04-21T08:49:08.095Z,39.73
2017-04-21T08:50:06.459Z,40.50
2017-04-21T08:51:05.040Z,38.69
2017-04-21T08:52:03.299Z,35.31
2017-04-21T08:53:01.584Z,39.83
2017-04-21T08:53:59.891Z,40.03
2017-04-21T08:54:58.206Z,41.29
2017-04-21T08:55:56.503Z,44.04
2017-04-21T08:56:55.530Z,39.19
2017-04-21T08:57:54.479Z,44.66
2017-04-21T08:58:53.258Z,41.63
2017-04-21T08:59:52.665Z,48.36
2017-04-21T09:00:50.968Z,38.84
2017-04-21T09:01:49.342Z,39.66
2017-04-21T09:02:47.657Z,39.00
2017-04-21T09:03:46.685Z,39.96
2017-04-21T09:04:45.004Z,41.23
2017-04-21T09:05:43.320Z,38.51
2017-04-21T09:06:41.651Z,45.49
2017-04-21T09:07:39.893Z,43.60
2017-04-21T09:08:38.777Z,41.81
2017-04-21T09:09:37.824Z,40.77
2017-04-21T09:10:36.468Z,37.87
2017-04-21T09:11:35.587Z,40.90
2017-04-21T09:12:33.911Z,51.03
2017-04-21T09:13:32.404Z,42.06
2017-04-21T09:14:31.874Z,39.87
2017-04-21T09:15:30.299Z,43.07
2017-04-21T09:16:28.582Z,42.01
2017-04-21T09:17:26.849Z,47.39
2017-04-21T09:18:25.195Z,42.07
2017-04-21T09:19:23.521Z,45.16
2017-04-21T09:20:21.906Z,43.26
2017-04-21T09:21:20.704Z,41.87
2017-04-21T09:22:20.955Z,42.80
2017-04-21T09:23:21.535Z,40.67
2017-04-21T09:24:19.907Z,51.30
2017-04-21T09:25:18.720Z,44.73
2017-04-21T09:26:17.954Z,45.16
2017-04-21T09:27:16.385Z,42.53
2017-04-21T09:28:15.996Z,44.04
2017-04-21T09:29:14.364Z,44.00
2017-04-21T09:30:12.729Z,43.86
2017-04-21T09:31:10.984Z,43.21
2017-04-21T09:32:10.009Z,45.43
2017-04-21T09:33:08.283Z,42.61
2017-04-21T09:34:33.643Z,40.74
2017-04-21T09:35:04.859Z,43.09
2017-04-21T09:36:03.179Z,42.47
2017-04-21T09:37:02.013Z,42.40
2017-04-21T09:38:00.289Z,39.43
2017-04-21T09:38:58.606Z,41.63
2017-04-21T09:39:56.859Z,42.23
2017-04-21T09:40:55.764Z,41.73
2017-04-21T09:41:54.681Z,46.81
2017-04-21T09:42:53.674Z,40.99
2017-04-21T09:43:52.838Z,45.20
2017-04-21T09:44:51.111Z,39.47
2017-04-21T09:45:49.434Z,41.29
2017-04-21T09:46:47.673Z,39.34
2017-04-21T09:47:46.877Z,40.87
2017-04-21T09:48:45.148Z,41.89
2017-04-21T09:49:43.431Z,41.20
2017-04-21T09:50:53.630Z,42.20
2017-04-21T09:52:36.403Z,40.13
2017-04-21T09:53:38.100Z,46.87
2017-04-21T09:56:03.416Z,44.27
2017-04-21T09:56:04.613Z,49.46
2017-04-21T09:57:23.110Z,40.11
2017-04-21T09:59:26.094Z,41.17
2017-04-21T09:59:48.151Z,41.71
2017-04-21T10:01:22.545Z,44.11
2017-04-21T10:01:25.293Z,42.19
2017-04-21T10:01:50.396Z,40.57
2017-04-21T10:06:00.468Z,40.14
2017-04-21T10:06:03.045Z,42.20
2017-04-21T10:06:51.620Z,45.73
2017-04-21T10:07:42.292Z,42.76
2017-04-21T10:08:09.167Z,45.34
2017-04-21T10:08:09.167Z,46.83
2017-04-21T10:08:11.830Z,43.21
2017-04-21T10:08:21.616Z,44.90
2017-04-21T10:09:14.420Z,45.87
2017-04-21T10:10:13.545Z,45.96
2017-04-21T10:11:11.854Z,40.24
2017-04-21T10:12:10.257Z,39.91
2017-04-21T10:13:09.267Z,44.86
2017-04-21T10:14:08.490Z,42.56
2017-04-21T10:15:07.900Z,43.36
2017-04-21T10:16:06.239Z,43.40
2017-04-21T10:17:04.594Z,43.03
2017-04-21T10:18:02.935Z,40.90
2017-04-21T10:19:01.210Z,44.24
2017-04-21T10:19:59.473Z,41.03
2017-04-21T10:20:57.813Z,45.64
2017-04-21T10:21:56.083Z,41.40
2017-04-21T10:22:55.000Z,42.04
2017-04-21T10:23:53.294Z,43.43
2017-04-21T10:24:51.662Z,43.56
2017-04-21T10:25:49.911Z,46.33
2017-04-21T10:26:48.193Z,43.73
2017-04-21T10:27:46.461Z,45.70
2017-04-21T10:28:44.727Z,41.93
2017-04-21T10:29:43.664Z,45.36
2017-04-21T10:30:42.682Z,44.71
2017-04-21T10:31:41.595Z,42.29
2017-04-21T10:32:39.902Z,42.37
2017-04-21T10:33:38.186Z,42.57
2017-04-21T10:34:36.654Z,42.61
2017-04-21T10:35:35.008Z,46.57
2017-04-21T10:36:33.491Z,43.69
2017-04-21T10:37:31.787Z,41.53
2017-04-21T10:38:30.132Z,42.26
2017-04-21T10:39:28.418Z,43.29
2017-04-21T10:40:26.785Z,39.70
2017-04-21T10:41:25.057Z,46.63
2017-04-21T10:42:23.403Z,41.91
2017-04-21T10:43:21.714Z,43.56
2017-04-21T10:44:20.471Z,42.20
2017-04-21T10:45:19.728Z,46.34
2017-04-21T10:46:18.041Z,43.79
2017-04-21T10:47:16.467Z,47.66
2017-04-21T10:48:14.763Z,41.09
2017-04-21T10:49:13.042Z,41.57
2017-04-21T10:50:11.954Z,42.57
2017-04-21T10:51:10.224Z,36.06
2017-04-21T10:52:08.521Z,42.16
2017-04-21T10:53:06.888Z,41.79
2017-04-21T10:54:05.236Z,42.97
2017-04-21T10:55:04.211Z,42.34
2017-04-21T10:56:03.297Z,41.66
2017-04-21T10:57:02.893Z,45.67
2017-04-21T10:58:01.179Z,46.04
2017-04-21T10:58:59.427Z,40.27
2017-04-21T10:59:57.815Z,41.90
2017-04-21T11:00:56.074Z,38.97
2017-04-21T11:01:54.371Z,42.44
2017-04-21T11:02:52.632Z,48.70
2017-04-21T11:03:50.917Z,45.83
2017-04-21T11:04:49.240Z,49.97
2017-04-21T11:05:48.246Z,49.47
2017-04-21T11:06:47.252Z,45.73
2017-04-21T11:07:45.581Z,43.67
2017-04-21T11:08:44.016Z,44.83
2017-04-21T11:09:42.284Z,41.93
2017-04-21T11:10:40.815Z,47.10
2017-04-21T11:12:47.118Z,47.57
2017-04-21T11:13:45.442Z,46.29
2017-04-21T11:14:43.694Z,43.94
2017-04-21T11:15:42.556Z,42.41
2017-04-21T11:16:41.601Z,44.59
2017-04-21T11:17:41.423Z,43.20
2017-04-21T11:18:40.871Z,46.93
2017-04-21T11:19:39.227Z,43.43
2017-04-21T11:20:38.202Z,45.60
2017-04-21T11:21:36.497Z,42.80
2017-04-21T11:22:34.850Z,48.04
2017-04-21T11:23:33.128Z,43.99
2017-04-21T11:24:31.409Z,41.36
2017-04-21T11:25:30.270Z,43.94
2017-04-21T11:26:28.651Z,43.03
2017-04-21T11:27:26.914Z,41.46
2017-04-21T11:28:25.240Z,47.09
2017-04-21T11:29:23.854Z,43.96
2017-04-21T11:30:23.117Z,44.19
2017-04-21T11:31:21.961Z,40.51
2017-04-21T11:32:20.277Z,45.70
2017-04-21T11:33:18.566Z,46.06
2017-04-21T11:34:16.998Z,44.41
2017-04-21T11:35:15.347Z,41.36
2017-04-21T11:36:14.374Z,43.29
2017-04-21T11:37:12.673Z,43.97
2017-04-21T11:38:12.053Z,44.20
2017-04-21T11:39:10.335Z,43.90
2017-04-21T11:40:08.560Z,42.54
2017-04-21T11:41:06.951Z,38.67
2017-04-21T11:42:05.231Z,42.47
2017-04-21T11:43:03.618Z,43.27
2017-04-21T11:44:01.960Z,35.60
2017-04-21T11:45:00.201Z,41.05
2017-04-21T11:45:58.523Z,36.79
2017-04-21T11:46:56.918Z,38.55
2017-04-21T11:47:55.179Z,37.94
2017-04-21T11:48:55.262Z,35.10
2017-04-21T11:49:53.595Z,30.97
2017-04-21T11:50:51.998Z,32.83
2017-04-21T11:51:50.496Z,33.54
2017-04-21T11:52:49.556Z,30.99
2017-04-21T11:53:47.856Z,31.04
2017-04-21T11:54:46.285Z,33.14
2017-04-21T11:55:44.594Z,34.16
2017-04-21T11:56:42.868Z,38.30
2017-04-21T11:57:41.254Z,35.47
2017-04-21T11:58:39.552Z,31.83
2017-04-21T11:59:37.836Z,29.91
2017-04-21T12:00:36.154Z,31.51
2017-04-21T12:01:34.446Z,30.66
2017-04-21T12:02:32.753Z,29.43
2017-04-21T12:03:32.287Z,32.24
2017-04-21T12:04:30.547Z,29.33
2017-04-21T12:05:28.862Z,28.43
2017-04-21T12:06:27.141Z,31.53
2017-04-21T12:07:26.151Z,32.10
2017-04-21T12:08:24.427Z,31.47
2017-04-21T12:09:22.691Z,30.31
2017-04-21T12:10:20.959Z,36.86
2017-04-21T12:11:19.256Z,30.89
2017-04-21T12:12:17.570Z,32.91
2017-04-21T12:13:15.963Z,27.77
2017-04-21T12:14:14.242Z,27.41
2017-04-21T12:15:12.528Z,23.51
2017-04-21T12:16:11.488Z,27.07
2017-04-21T12:17:09.777Z,26.99
2017-04-21T12:18:08.145Z,25.84
2017-04-21T12:19:07.069Z,27.53
2017-04-21T12:20:05.415Z,29.59
2017-04-21T12:21:03.791Z,27.59
2017-04-21T12:22:02.104Z,27.91
2017-04-21T12:23:00.587Z,26.01
2017-04-21T12:23:58.892Z,27.07
2017-04-21T12:24:57.211Z,26.69
2017-04-21T12:25:55.590Z,27.43
2017-04-21T12:26:53.859Z,27.67
2017-04-21T12:27:52.133Z,29.27
2017-04-21T12:28:51.588Z,26.40
2017-04-21T12:29:49.981Z,30.63
2017-04-21T12:30:48.350Z,32.19
2017-04-21T12:31:46.648Z,26.33
2017-04-21T12:32:44.936Z,26.90
2017-04-21T12:33:44.699Z,29.16
2017-04-21T12:34:43.150Z,31.07
2017-04-21T12:35:41.766Z,31.09
2017-04-21T12:36:40.052Z,26.09
2017-04-21T12:37:38.359Z,30.16
2017-04-21T12:38:37.258Z,25.14
2017-04-21T12:39:35.556Z,26.40
2017-04-21T12:40:33.908Z,25.24
2017-04-21T12:41:35.582Z,29.21
2017-04-21T12:42:34.099Z,23.67
2017-04-21T12:43:32.458Z,25.16
2017-04-21T12:44:30.706Z,26.70
2017-04-21T12:45:29.819Z,25.76
2017-04-21T12:46:28.090Z,25.33
2017-04-21T12:47:27.082Z,25.14
2017-04-21T12:48:25.408Z,26.94
2017-04-21T12:49:23.810Z,25.69